Time;durP1;ratioP1;P1;durP2;ratioP2;P2;SDS_P1;SDS_P2;PMS_P1;PMS_P2;Temp;Humidity;BMP_temperature;BMP_pressure;BME280_temperature;BME280_humidity;BME280_pressure;Samples;Min_cycle;Max_cycle;Signal;HPM_P1;HPM_P2
2022/01/13 00:02:38;;;;;;;14.68;5.50;;;1.80;99.90;;;;;;10340176;28;20140;-61
2022/01/13 00:07:41;;;;;;;17.17;6.00;;;1.70;99.90;;;;;;10342030;28;20057;-62
2022/01/13 00:12:44;;;;;;;17.75;5.80;;;1.60;99.90;;;;;;10337627;28;20065;-62
2022/01/13 00:28:16;;;;;;;14.27;5.28;;;1.40;99.90;;;;;;10337133;28;20065;-62
2022/01/13 00:33:23;;;;;;;16.60;6.18;;;1.40;99.90;;;;;;10340536;28;20065;-62
2022/01/13 00:38:26;;;;;;;18.90;6.35;;;1.30;99.90;;;;;;10338867;28;20151;-61
2022/01/13 00:43:28;;;;;;;16.25;5.35;;;1.30;99.90;;;;;;10339782;28;20109;-62
2022/01/13 00:48:30;;;;;;;17.20;6.78;;;1.20;99.90;;;;;;10339856;28;20080;-61
2022/01/13 00:53:31;;;;;;;15.10;5.88;;;1.20;99.90;;;;;;10339287;28;20049;-62
2022/01/13 00:58:35;;;;;;;18.83;6.85;;;1.20;99.90;;;;;;10341884;28;20074;-61
2022/01/13 01:03:37;;;;;;;13.55;5.55;;;1.20;99.90;;;;;;10327881;28;20599;-61
2022/01/13 01:08:40;;;;;;;21.77;6.93;;;1.20;99.90;;;;;;10336573;28;20111;-62
2022/01/13 01:13:47;;;;;;;15.65;7.10;;;1.20;99.90;;;;;;10337006;28;20053;-63
2022/01/13 01:19:12;;;;;;;16.98;6.53;;;1.20;99.90;;;;;;10344175;28;20949;-61
2022/01/13 01:29:35;;;;;;;31.00;9.75;;;1.30;99.90;;;;;;10342319;28;20124;-62
2022/01/13 01:34:54;;;;;;;40.67;13.23;;;1.30;99.90;;;;;;10335922;28;20515;-62
2022/01/13 01:39:57;;;;;;;55.28;20.15;;;1.30;99.90;;;;;;10335617;28;20076;-61
2022/01/13 01:45:00;;;;;;;27.38;8.45;;;1.40;99.90;;;;;;10339734;28;20452;-61
2022/01/13 01:50:17;;;;;;;18.88;7.68;;;1.40;99.90;;;;;;10342305;28;20520;-61
2022/01/13 01:55:20;;;;;;;19.42;7.65;;;1.40;99.90;;;;;;10342576;28;20493;-61
2022/01/13 02:00:24;;;;;;;20.02;7.40;;;1.40;99.90;;;;;;10345638;28;20073;-61
2022/01/13 02:05:26;;;;;;;20.10;7.60;;;1.40;99.90;;;;;;10349183;28;20381;-61
2022/01/13 02:10:28;;;;;;;21.58;8.10;;;1.40;99.90;;;;;;10348658;28;20042;-62
2022/01/13 02:15:35;;;;;;;21.58;8.30;;;1.50;99.90;;;;;;10344614;28;20069;-61
2022/01/13 02:20:56;;;;;;;17.67;8.02;;;1.50;99.90;;;;;;10345639;28;20058;-62
2022/01/13 02:25:58;;;;;;;18.17;8.05;;;1.50;99.90;;;;;;10346938;28;20453;-62
2022/01/13 02:31:00;;;;;;;20.45;7.38;;;1.50;99.90;;;;;;10341530;28;20073;-61
2022/01/13 02:36:03;;;;;;;17.48;6.82;;;1.60;99.90;;;;;;10339005;28;20042;-62
2022/01/13 02:41:05;;;;;;;18.63;6.70;;;1.60;99.90;;;;;;10349685;28;20501;-61
2022/01/13 02:51:41;;;;;;;11.25;4.75;;;1.70;99.90;;;;;;10343118;28;20052;-61
2022/01/13 02:56:44;;;;;;;11.15;4.30;;;1.70;99.90;;;;;;10341984;28;20049;-61
2022/01/13 03:01:46;;;;;;;16.17;4.78;;;1.70;99.90;;;;;;10340673;28;20515;-61
2022/01/13 03:06:48;;;;;;;12.95;4.97;;;1.80;99.90;;;;;;10341391;28;20061;-61
2022/01/13 03:11:50;;;;;;;17.25;5.15;;;1.80;99.90;;;;;;10341915;28;20080;-61
2022/01/13 03:16:52;;;;;;;10.57;3.88;;;1.90;99.90;;;;;;10345368;28;20049;-61
2022/01/13 03:21:54;;;;;;;10.65;4.35;;;1.90;99.90;;;;;;10341409;28;20073;-61
2022/01/13 03:26:55;;;;;;;11.13;4.43;;;1.90;99.90;;;;;;10347609;28;20100;-61
2022/01/13 03:31:57;;;;;;;12.07;5.03;;;1.90;99.90;;;;;;10344894;28;20073;-62
2022/01/13 03:36:59;;;;;;;14.13;5.13;;;2.00;99.90;;;;;;10345972;28;20116;-61
2022/01/13 03:42:04;;;;;;;11.38;5.18;;;2.00;99.90;;;;;;10340197;28;20468;-62
2022/01/13 03:47:05;;;;;;;16.30;6.47;;;2.00;99.90;;;;;;10341936;28;20181;-61
2022/01/13 03:52:30;;;;;;;15.05;6.55;;;2.00;99.90;;;;;;10343211;28;20129;-62
2022/01/13 03:58:03;;;;;;;14.85;5.45;;;2.00;99.90;;;;;;10348018;28;20069;-61
2022/01/13 04:03:05;;;;;;;15.80;5.63;;;2.00;99.90;;;;;;10338538;28;20224;-61
2022/01/13 04:08:07;;;;;;;14.60;5.07;;;1.90;99.90;;;;;;10346956;28;20136;-61
2022/01/13 04:13:21;;;;;;;14.07;5.35;;;2.00;99.90;;;;;;10341257;28;20136;-62
2022/01/13 04:18:23;;;;;;;10.63;4.18;;;2.00;99.90;;;;;;10343726;28;20049;-61
2022/01/13 04:23:25;;;;;;;12.45;5.63;;;2.10;99.90;;;;;;10341496;28;20543;-62
2022/01/13 04:28:28;;;;;;;13.40;4.60;;;2.10;99.90;;;;;;10343961;28;20069;-61
2022/01/13 04:33:33;;;;;;;14.25;5.68;;;2.10;99.90;;;;;;10336284;28;20140;-62
2022/01/13 04:38:35;;;;;;;16.27;5.85;;;2.10;99.90;;;;;;10342303;28;20081;-61
2022/01/13 04:43:37;;;;;;;13.45;5.90;;;2.10;99.90;;;;;;10345926;28;20507;-62
2022/01/13 04:48:38;;;;;;;17.95;6.30;;;2.20;99.90;;;;;;10335772;28;20042;-62
2022/01/13 04:53:40;;;;;;;19.23;8.15;;;2.10;99.90;;;;;;10341250;28;20489;-62
2022/01/13 04:58:42;;;;;;;19.63;7.32;;;2.10;99.90;;;;;;10342067;28;20100;-62
2022/01/13 05:03:44;;;;;;;18.45;7.25;;;2.20;99.90;;;;;;10339787;28;20073;-62
2022/01/13 05:08:46;;;;;;;15.95;6.78;;;2.20;99.90;;;;;;10336916;28;20174;-62
2022/01/13 05:13:48;;;;;;;22.48;7.82;;;2.30;99.90;;;;;;10335084;28;20042;-62
2022/01/13 05:23:54;;;;;;;20.88;8.38;;;2.20;99.90;;;;;;10341938;28;20547;-61
2022/01/13 05:28:56;;;;;;;22.23;8.55;;;2.20;99.90;;;;;;10346999;28;20077;-62
2022/01/13 05:33:58;;;;;;;24.50;9.13;;;2.20;99.90;;;;;;10351446;28;20121;-61
2022/01/13 05:38:59;;;;;;;16.50;7.57;;;2.20;99.90;;;;;;10346335;28;20061;-61
2022/01/13 05:44:01;;;;;;;16.30;7.25;;;2.30;99.90;;;;;;10342699;28;20705;-61
2022/01/13 05:49:03;;;;;;;13.77;5.85;;;2.20;99.90;;;;;;10346985;28;20085;-62
2022/01/13 05:54:04;;;;;;;15.80;6.25;;;2.20;99.90;;;;;;10349765;28;20622;-62
2022/01/13 05:59:06;;;;;;;11.65;5.10;;;2.20;99.90;;;;;;10348716;28;20045;-62
2022/01/13 06:04:08;;;;;;;12.75;5.00;;;2.10;99.90;;;;;;10343528;28;20061;-61
2022/01/13 06:09:10;;;;;;;12.32;5.07;;;2.10;99.90;;;;;;10339597;28;20444;-61
2022/01/13 06:14:11;;;;;;;12.10;4.82;;;2.00;99.90;;;;;;10342042;28;20054;-61
2022/01/13 06:19:13;;;;;;;13.50;4.85;;;1.90;99.90;;;;;;10344356;28;20132;-62
2022/01/13 06:24:15;;;;;;;17.63;5.88;;;1.90;99.90;;;;;;10344408;28;20115;-62
2022/01/13 06:29:17;;;;;;;14.55;4.55;;;1.90;99.90;;;;;;10343695;28;20068;-62
2022/01/13 06:34:19;;;;;;;16.42;6.93;;;1.90;99.90;;;;;;10340674;28;20077;-61
2022/01/13 06:39:21;;;;;;;16.90;6.30;;;1.90;99.90;;;;;;10349005;28;20045;-60
2022/01/13 06:44:22;;;;;;;17.77;6.35;;;1.90;99.90;;;;;;10344879;28;20212;-60
2022/01/13 06:49:24;;;;;;;11.98;5.07;;;1.80;99.90;;;;;;10345981;28;20057;-61
2022/01/13 06:54:26;;;;;;;13.95;5.63;;;1.90;99.90;;;;;;10346001;28;20089;-60
2022/01/13 06:59:28;;;;;;;17.17;6.85;;;1.80;99.90;;;;;;10346510;28;20084;-60
2022/01/13 07:04:29;;;;;;;18.55;6.78;;;1.80;99.90;;;;;;10346236;28;20046;-60
2022/01/13 07:09:31;;;;;;;18.17;7.22;;;1.70;99.90;;;;;;10340257;28;20120;-61
2022/01/13 07:14:33;;;;;;;15.80;7.78;;;1.80;99.90;;;;;;10341986;28;20527;-60
2022/01/13 07:19:34;;;;;;;16.92;8.40;;;1.90;99.90;;;;;;10342682;28;20487;-63
2022/01/13 07:24:36;;;;;;;17.17;7.88;;;1.90;99.90;;;;;;10345088;28;20571;-63
2022/01/13 07:29:42;;;;;;;15.82;7.07;;;2.00;99.90;;;;;;10341715;28;20115;-63
2022/01/13 07:34:45;;;;;;;15.18;7.75;;;1.90;99.90;;;;;;10339739;28;20042;-63
2022/01/13 07:39:49;;;;;;;17.80;7.22;;;1.90;99.90;;;;;;10343518;28;20504;-63
2022/01/13 07:44:52;;;;;;;15.90;7.43;;;1.90;99.90;;;;;;10343915;28;20053;-63
2022/01/13 07:49:54;;;;;;;15.57;6.50;;;1.80;99.90;;;;;;10347159;28;20052;-63
2022/01/13 07:54:56;;;;;;;18.80;7.57;;;1.90;99.90;;;;;;10342777;28;20104;-63
2022/01/13 07:59:58;;;;;;;18.48;7.63;;;1.80;99.90;;;;;;10357037;28;20077;-63
2022/01/13 08:05:02;;;;;;;19.25;8.07;;;1.80;99.90;;;;;;10339405;28;20079;-63
2022/01/13 08:10:04;;;;;;;19.45;8.63;;;1.70;99.90;;;;;;10340335;28;20045;-63
2022/01/13 08:15:11;;;;;;;19.63;8.52;;;1.80;99.90;;;;;;10344396;28;20061;-63
2022/01/13 08:20:13;;;;;;;27.83;9.82;;;1.80;99.90;;;;;;10338057;28;20065;-63
2022/01/13 08:25:17;;;;;;;24.52;10.35;;;1.70;99.90;;;;;;10336015;28;20127;-63
2022/01/13 08:30:19;;;;;;;18.92;8.68;;;1.80;99.90;;;;;;10345275;28;20052;-63
2022/01/13 08:35:20;;;;;;;24.13;9.85;;;1.80;99.90;;;;;;10340321;28;20077;-63
2022/01/13 08:40:22;;;;;;;20.95;8.07;;;1.90;99.90;;;;;;10339320;28;20453;-63
2022/01/13 08:45:24;;;;;;;17.25;7.93;;;1.90;99.90;;;;;;10339152;28;20412;-63
2022/01/13 08:50:26;;;;;;;17.08;8.13;;;1.90;99.90;;;;;;10349244;28;20069;-64
2022/01/13 08:55:28;;;;;;;17.85;7.70;;;1.80;99.90;;;;;;10333450;28;20084;-65
2022/01/13 09:00:29;;;;;;;20.23;7.55;;;1.80;99.90;;;;;;10340133;28;20893;-66
2022/01/13 09:05:31;;;;;;;18.20;8.23;;;1.70;99.90;;;;;;10349380;28;20124;-66
2022/01/13 09:10:33;;;;;;;18.27;8.20;;;1.80;99.90;;;;;;10351336;28;20073;-66
2022/01/13 09:15:39;;;;;;;20.30;8.48;;;1.80;99.90;;;;;;10342339;28;20096;-65
2022/01/13 09:20:42;;;;;;;24.92;9.32;;;1.90;99.90;;;;;;10339284;28;20042;-65
2022/01/13 09:25:43;;;;;;;21.08;7.90;;;1.80;99.90;;;;;;10347664;28;20489;-65
2022/01/13 09:30:45;;;;;;;26.10;8.27;;;1.80;99.90;;;;;;10349000;28;20049;-65
2022/01/13 09:35:47;;;;;;;22.30;9.25;;;1.70;99.90;;;;;;10343096;28;20137;-65
2022/01/13 09:40:53;;;;;;;24.02;9.57;;;1.90;99.90;;;;;;10358230;28;20123;-65
2022/01/13 09:46:00;;;;;;;22.00;8.85;;;1.90;99.90;;;;;;10346441;28;20103;-65
2022/01/13 09:51:02;;;;;;;26.30;9.73;;;1.90;99.90;;;;;;10348479;28;20069;-65
2022/01/13 09:56:04;;;;;;;24.35;10.00;;;2.00;99.90;;;;;;10348735;28;20050;-65
2022/01/13 10:01:06;;;;;;;27.33;9.50;;;2.10;99.90;;;;;;10347433;28;20077;-65
2022/01/13 10:06:19;;;;;;;26.90;9.90;;;2.20;99.90;;;;;;10345932;28;20056;-63
2022/01/13 10:11:42;;;;;;;22.85;10.20;;;2.30;99.90;;;;;;10342618;28;20065;-63
2022/01/13 10:16:49;;;;;;;27.35;9.93;;;2.10;99.90;;;;;;10350854;28;20212;-63
2022/01/13 10:21:56;;;;;;;;;;;2.10;99.90;;;;;;10331721;28;20045;-64
2022/01/13 10:26:59;;;;;;;29.00;10.18;;;2.40;99.90;;;;;;10344541;28;19921;-64
2022/01/13 10:32:01;;;;;;;22.20;9.40;;;2.40;99.90;;;;;;10346390;28;20099;-64
2022/01/13 10:37:11;;;;;;;22.80;9.10;;;2.30;99.90;;;;;;10348547;28;20132;-64
2022/01/13 10:43:06;;;;;;;22.83;9.90;;;2.30;99.90;;;;;;10341833;28;20444;-64
2022/01/13 10:47:36;;;;;;;25.80;9.20;;;2.30;99.90;;;;;;10341515;28;20066;-64
2022/01/13 10:52:39;;;;;;;25.80;10.05;;;2.30;99.90;;;;;;10346911;28;20091;-64
2022/01/13 10:57:45;;;;;;;31.30;10.82;;;2.30;99.90;;;;;;10341564;28;20138;-64
2022/01/13 11:03:02;;;;;;;26.40;11.57;;;2.30;99.90;;;;;;10342443;28;20500;-63
2022/01/13 11:08:07;;;;;;;23.17;10.23;;;2.50;99.90;;;;;;10345697;28;20058;-64
2022/01/13 11:13:17;;;;;;;24.48;11.15;;;2.40;99.90;;;;;;10343697;28;20065;-64
2022/01/13 11:18:20;;;;;;;26.63;11.52;;;2.40;99.90;;;;;;10342591;28;20073;-64
2022/01/13 11:23:22;;;;;;;27.23;10.95;;;2.60;99.90;;;;;;10341489;28;20054;-64
2022/01/13 11:28:24;;;;;;;24.33;10.25;;;2.60;99.90;;;;;;10342037;28;20123;-64
2022/01/13 11:33:26;;;;;;;28.77;12.15;;;2.60;99.90;;;;;;10343371;28;20152;-64
2022/01/13 11:38:29;;;;;;;28.85;10.75;;;2.60;99.90;;;;;;10343313;28;20492;-64
2022/01/13 11:43:35;;;;;;;27.67;10.75;;;2.70;99.90;;;;;;10343418;28;20081;-63
2022/01/13 11:48:41;;;;;;;29.30;10.80;;;2.50;99.90;;;;;;10342006;28;20081;-63
2022/01/13 11:53:59;;;;;;;34.30;12.40;;;2.50;99.90;;;;;;10339235;28;20073;-64
2022/01/13 11:59:06;;;;;;;26.90;10.15;;;2.90;99.90;;;;;;10342617;28;20537;-64
2022/01/13 12:04:08;;;;;;;23.67;10.83;;;3.00;99.90;;;;;;10343561;28;20061;-64
2022/01/13 12:09:22;;;;;;;25.23;11.07;;;2.80;99.90;;;;;;10335867;28;20065;-64
2022/01/13 12:14:32;;;;;;;21.75;10.65;;;3.00;99.90;;;;;;10329971;28;20401;-64
2022/01/13 12:19:43;;;;;;;26.38;11.82;;;2.90;99.90;;;;;;10342350;28;20057;-64
2022/01/13 12:24:51;;;;;;;28.85;12.63;;;2.90;99.90;;;;;;10335681;28;20481;-64
2022/01/13 12:30:05;;;;;;;;;;;3.30;99.90;;;;;;10340303;28;20050;-64
2022/01/13 12:35:10;;;;;;;25.55;10.32;;;3.50;99.90;;;;;;10334799;28;19961;-63
2022/01/13 12:40:15;;;;;;;22.80;10.02;;;3.60;99.90;;;;;;10342902;28;20053;-63
2022/01/13 12:45:28;;;;;;;22.73;10.20;;;3.70;99.90;;;;;;10339345;28;20046;-63
2022/01/13 12:50:40;;;;;;;23.17;10.35;;;3.90;99.90;;;;;;10342519;28;20052;-62
2022/01/13 12:55:56;;;;;;;23.70;10.73;;;3.80;99.90;;;;;;10341181;28;20862;-62
2022/01/13 13:01:04;;;;;;;23.45;10.88;;;3.30;99.90;;;;;;10341221;28;20116;-63
2022/01/13 13:06:11;;;;;;;25.33;11.05;;;3.40;99.90;;;;;;10342423;28;20129;-63
2022/01/13 13:11:13;;;;;;;25.08;11.77;;;3.00;99.90;;;;;;10337889;28;20796;-63
2022/01/13 13:16:15;;;;;;;19.63;9.65;;;2.80;99.90;;;;;;10344664;28;20077;-63
2022/01/13 13:21:17;;;;;;;26.27;10.93;;;3.00;99.90;;;;;;10339704;28;20124;-63
2022/01/13 13:26:21;;;;;;;27.05;11.25;;;2.80;99.90;;;;;;10343266;28;20545;-63
2022/01/13 13:31:28;;;;;;;24.55;10.55;;;2.90;99.90;;;;;;10341610;28;20077;-63
2022/01/13 13:36:37;;;;;;;31.83;12.95;;;2.90;99.90;;;;;;10338823;28;20081;-63
2022/01/13 13:41:49;;;;;;;30.95;12.23;;;2.90;99.90;;;;;;10341545;28;20049;-63
2022/01/13 13:46:57;;;;;;;29.33;12.50;;;2.90;99.90;;;;;;10343308;28;20126;-63
2022/01/13 13:52:01;;;;;;;32.28;12.95;;;2.90;99.90;;;;;;10348974;28;20057;-63
2022/01/13 13:57:08;;;;;;;30.80;12.82;;;2.80;99.90;;;;;;10337209;28;20107;-63
2022/01/13 14:02:12;;;;;;;31.30;13.82;;;2.90;99.90;;;;;;10343672;28;20053;-63
2022/01/13 14:07:38;;;;;;;37.83;14.68;;;3.10;99.90;;;;;;10342593;28;20060;-63
2022/01/13 14:12:42;;;;;;;35.03;14.65;;;3.00;99.90;;;;;;10342464;28;20053;-63
2022/01/13 14:17:45;;;;;;;36.45;14.25;;;3.00;99.90;;;;;;10360925;28;20067;-63
2022/01/13 14:23:17;;;;;;;35.30;14.77;;;2.90;99.90;;;;;;10345060;28;20056;-63
2022/01/13 14:28:27;;;;;;;34.95;14.57;;;2.80;99.90;;;;;;10337191;28;20046;-63
2022/01/13 14:33:32;;;;;;;34.67;13.07;;;2.80;99.90;;;;;;10342679;28;20196;-62
2022/01/13 14:38:43;;;;;;;34.10;13.43;;;3.00;99.90;;;;;;10341384;28;20654;-62
2022/01/13 14:44:08;;;;;;;32.10;13.02;;;3.00;99.90;;;;;;10340759;28;20343;-63
2022/01/13 14:49:11;;;;;;;30.67;11.52;;;3.00;99.90;;;;;;10343694;28;20061;-63
2022/01/13 14:54:14;;;;;;;34.78;13.55;;;3.00;99.90;;;;;;10344113;28;20136;-62
2022/01/13 14:59:16;;;;;;;32.95;14.23;;;2.90;99.90;;;;;;10345141;28;20054;-62
2022/01/13 15:04:18;;;;;;;40.92;13.85;;;2.90;99.90;;;;;;10325971;28;20050;-63
2022/01/13 15:09:20;;;;;;;32.47;13.30;;;2.80;99.90;;;;;;10343389;28;20038;-63
2022/01/13 15:14:21;;;;;;;36.50;12.68;;;2.70;99.90;;;;;;10343029;28;20404;-63
2022/01/13 15:19:26;;;;;;;33.97;13.27;;;2.70;99.90;;;;;;10343996;28;20145;-63
2022/01/13 15:24:28;;;;;;;33.75;12.75;;;2.70;99.90;;;;;;10338622;28;20115;-63
2022/01/13 15:29:29;;;;;;;37.72;13.35;;;2.70;99.90;;;;;;10341845;28;20569;-63
2022/01/13 15:34:31;;;;;;;42.42;14.82;;;2.60;99.90;;;;;;10341714;28;20576;-62
2022/01/13 15:39:34;;;;;;;40.75;14.45;;;2.70;99.90;;;;;;10340334;28;20073;-62
2022/01/13 15:44:35;;;;;;;34.00;12.57;;;2.90;99.90;;;;;;10345720;28;20100;-62
2022/01/13 15:49:38;;;;;;;33.85;13.88;;;2.70;99.90;;;;;;10344608;28;20056;-62
2022/01/13 15:54:39;;;;;;;35.58;14.20;;;2.80;99.90;;;;;;10340456;28;20153;-62
2022/01/13 15:59:42;;;;;;;36.13;13.50;;;2.80;99.90;;;;;;10336668;28;20558;-63
2022/01/13 16:04:45;;;;;;;37.42;13.80;;;2.80;99.90;;;;;;10342010;28;20193;-63
2022/01/13 16:09:46;;;;;;;36.40;14.10;;;2.70;99.90;;;;;;10341965;28;20041;-63
2022/01/13 16:21:05;;;;;;;40.17;13.43;;;2.60;99.90;;;;;;10339133;28;20420;-62
2022/01/13 16:26:07;;;;;;;31.50;13.55;;;2.70;99.90;;;;;;10345900;28;20520;-61
2022/01/13 16:31:09;;;;;;;47.15;14.65;;;2.70;99.90;;;;;;10335047;28;20054;-62
2022/01/13 16:36:11;;;;;;;31.92;11.98;;;2.70;99.90;;;;;;10338639;28;20045;-62
2022/01/13 16:41:13;;;;;;;36.58;13.73;;;2.70;99.90;;;;;;10341096;28;20500;-60
2022/01/13 16:46:14;;;;;;;36.03;13.73;;;2.60;99.90;;;;;;10338983;28;20046;-60
2022/01/13 16:51:16;;;;;;;41.20;13.98;;;2.50;99.90;;;;;;10340992;28;20141;-61
2022/01/13 16:56:17;;;;;;;43.83;14.02;;;2.60;99.90;;;;;;10343983;28;20061;-60
2022/01/13 17:01:19;;;;;;;32.90;12.13;;;2.60;99.90;;;;;;10338380;28;20073;-59
2022/01/13 17:06:22;;;;;;;35.08;13.38;;;2.60;99.90;;;;;;10347450;28;20412;-59
2022/01/13 17:11:24;;;;;;;34.30;11.50;;;2.50;99.90;;;;;;10339130;28;20565;-59
2022/01/13 17:16:27;;;;;;;39.35;12.45;;;2.40;99.90;;;;;;10345570;28;20050;-59
2022/01/13 17:21:31;;;;;;;35.10;11.85;;;2.20;99.90;;;;;;10339880;28;20377;-61
2022/01/13 17:26:33;;;;;;;36.90;11.40;;;2.20;99.90;;;;;;10348821;28;20063;-62
2022/01/13 17:31:35;;;;;;;39.05;13.48;;;2.20;99.90;;;;;;10348605;28;20077;-61
2022/01/13 17:36:38;;;;;;;33.92;12.48;;;2.20;99.90;;;;;;10355188;28;20045;-61
2022/01/13 17:41:39;;;;;;;40.35;13.50;;;2.20;99.90;;;;;;10347413;28;20117;-61
2022/01/13 17:46:41;;;;;;;31.30;12.02;;;2.20;99.90;;;;;;10346648;28;20038;-61
2022/01/13 17:51:43;;;;;;;36.50;14.05;;;2.20;99.90;;;;;;10345466;28;20119;-61
2022/01/13 17:56:45;;;;;;;38.58;12.57;;;2.20;99.90;;;;;;10343169;28;20046;-62
2022/01/13 18:01:46;;;;;;;36.63;13.98;;;2.10;99.90;;;;;;10346789;28;20054;-62
2022/01/13 18:06:48;;;;;;;45.22;13.13;;;2.20;99.90;;;;;;10329465;28;20389;-60
2022/01/13 18:11:50;;;;;;;39.10;13.30;;;2.10;99.90;;;;;;10344252;28;20070;-60
2022/01/13 18:16:53;;;;;;;39.60;13.13;;;2.10;99.90;;;;;;10350121;28;20115;-61
2022/01/13 18:21:55;;;;;;;36.63;12.57;;;2.10;99.90;;;;;;10345095;28;20050;-62
2022/01/13 18:26:57;;;;;;;43.92;13.60;;;2.00;99.90;;;;;;10346636;28;20048;-62
2022/01/13 18:31:59;;;;;;;37.60;12.73;;;2.00;99.90;;;;;;10346437;28;20046;-62
2022/01/13 18:37:01;;;;;;;35.33;12.57;;;2.10;99.90;;;;;;10344936;28;20053;-61
2022/01/13 18:42:04;;;;;;;38.55;13.90;;;2.00;99.90;;;;;;10346150;28;20123;-62
2022/01/13 18:47:10;;;;;;;40.63;12.90;;;1.90;99.90;;;;;;10338975;28;20054;-61
2022/01/13 18:52:13;;;;;;;42.22;12.95;;;1.90;99.90;;;;;;10339917;28;20050;-62
2022/01/13 18:57:15;;;;;;;37.25;13.32;;;2.10;99.90;;;;;;10347004;28;20136;-62
2022/01/13 19:02:17;;;;;;;32.38;12.93;;;2.10;99.90;;;;;;10345787;28;20114;-62
2022/01/13 19:07:19;;;;;;;45.53;13.88;;;2.00;99.90;;;;;;10359769;28;20049;-61
2022/01/13 19:12:21;;;;;;;37.85;13.43;;;2.10;99.90;;;;;;10343209;28;20045;-62
2022/01/13 19:17:42;;;;;;;42.20;14.63;;;2.20;99.90;;;;;;10341985;28;20108;-62
2022/01/13 19:22:49;;;;;;;42.22;13.35;;;2.00;99.90;;;;;;10345605;28;20431;-62
2022/01/13 19:27:50;;;;;;;38.20;12.18;;;1.90;99.90;;;;;;10337885;28;20160;-61
2022/01/13 19:32:56;;;;;;;41.30;13.50;;;1.90;99.90;;;;;;10337279;28;20132;-62
2022/01/13 19:37:58;;;;;;;43.45;14.50;;;1.80;99.90;;;;;;10343585;28;20046;-62
2022/01/13 19:43:01;;;;;;;45.38;15.20;;;2.00;99.90;;;;;;10341391;28;20480;-62
2022/01/13 19:48:03;;;;;;;45.72;14.57;;;2.00;99.90;;;;;;10342039;28;20555;-62
2022/01/13 19:53:14;;;;;;;40.40;14.77;;;2.10;99.90;;;;;;10344619;28;20455;-61
2022/01/13 19:58:16;;;;;;;36.65;12.48;;;2.20;99.90;;;;;;10341444;28;20081;-61
2022/01/13 20:03:17;;;;;;;44.25;14.30;;;2.20;99.90;;;;;;10341630;28;20548;-62
2022/01/13 20:08:19;;;;;;;38.03;13.57;;;2.30;99.90;;;;;;10343130;28;20065;-62
2022/01/13 20:13:21;;;;;;;41.08;13.43;;;2.30;99.90;;;;;;10338573;28;20072;-62
2022/01/13 20:18:23;;;;;;;37.30;13.05;;;2.30;99.90;;;;;;10341887;28;20170;-61
2022/01/13 20:23:25;;;;;;;44.95;13.93;;;2.30;99.90;;;;;;10335337;28;20131;-61
2022/01/13 20:28:26;;;;;;;52.15;14.98;;;2.10;99.90;;;;;;10357070;28;20049;-61
2022/01/13 20:33:28;;;;;;;39.78;14.43;;;2.10;99.90;;;;;;10339718;28;20049;-61
2022/01/13 20:38:31;;;;;;;44.85;14.45;;;2.20;99.90;;;;;;10342658;28;20127;-61
2022/01/13 20:43:32;;;;;;;43.90;15.95;;;2.20;99.90;;;;;;10338472;28;20057;-61
2022/01/13 20:48:35;;;;;;;45.15;13.57;;;2.30;99.90;;;;;;10344942;28;20041;-61
2022/01/13 20:53:36;;;;;;;40.60;14.27;;;2.30;99.90;;;;;;10338737;28;20077;-62
2022/01/13 20:58:39;;;;;;;36.00;12.55;;;2.20;99.90;;;;;;10339610;28;20054;-62
2022/01/13 21:03:41;;;;;;;38.42;11.32;;;2.20;99.90;;;;;;10343655;28;20377;-61
2022/01/13 21:08:43;;;;;;;40.33;12.80;;;2.30;99.90;;;;;;10340893;28;20071;-61
2022/01/13 21:13:45;;;;;;;43.47;13.88;;;2.20;99.90;;;;;;10339537;28;20057;-62
2022/01/13 21:18:47;;;;;;;43.63;12.23;;;2.10;99.90;;;;;;10338836;28;20452;-62
2022/01/13 21:23:50;;;;;;;49.88;14.88;;;2.20;99.90;;;;;;10339758;28;20528;-61
2022/01/13 21:28:52;;;;;;;41.40;13.32;;;2.20;99.90;;;;;;10339198;28;20046;-62
2022/01/13 21:33:57;;;;;;;46.70;13.32;;;2.20;99.90;;;;;;10341384;28;20515;-62
2022/01/13 21:38:59;;;;;;;43.72;14.18;;;2.10;99.90;;;;;;10328462;28;20045;-62
2022/01/13 21:44:00;;;;;;;41.80;13.63;;;2.00;99.90;;;;;;10338395;28;20084;-62
2022/01/13 21:49:03;;;;;;;47.78;14.13;;;1.90;99.90;;;;;;10337537;28;20065;-62
2022/01/13 21:54:04;;;;;;;44.00;14.43;;;1.90;99.90;;;;;;10337997;28;20063;-62
2022/01/13 21:59:08;;;;;;;48.38;13.48;;;1.80;99.90;;;;;;10339106;28;20097;-61
2022/01/13 22:04:11;;;;;;;52.35;13.75;;;1.90;99.90;;;;;;10339424;28;20116;-61
2022/01/13 22:14:34;;;;;;;50.33;13.52;;;1.80;99.90;;;;;;10348401;28;20061;-61
2022/01/13 22:19:35;;;;;;;51.60;14.95;;;1.80;99.90;;;;;;10352412;28;20054;-60
2022/01/13 22:24:40;;;;;;;50.00;14.88;;;1.90;99.90;;;;;;10348452;28;20057;-61
2022/01/13 22:29:42;;;;;;;44.03;13.45;;;1.90;99.90;;;;;;10321294;28;20065;-61
2022/01/13 22:34:44;;;;;;;43.17;13.52;;;1.90;99.90;;;;;;10347983;28;20412;-61
2022/01/13 22:39:46;;;;;;;39.60;12.77;;;1.70;99.90;;;;;;10348268;28;20115;-60
2022/01/13 22:44:48;;;;;;;40.08;13.27;;;1.70;99.90;;;;;;10344772;28;20061;-61
2022/01/13 22:49:49;;;;;;;46.20;11.60;;;1.50;99.90;;;;;;10347365;28;20069;-61
2022/01/13 22:54:51;;;;;;;40.72;12.45;;;1.40;99.90;;;;;;10344218;28;20535;-61
2022/01/13 22:59:53;;;;;;;47.17;12.50;;;1.50;99.90;;;;;;10343211;28;20124;-61
2022/01/13 23:04:54;;;;;;;62.25;14.15;;;1.60;99.90;;;;;;10343417;28;20563;-61
2022/01/13 23:09:56;;;;;;;50.92;13.77;;;1.60;99.90;;;;;;10346747;28;20073;-61
2022/01/13 23:25:28;;;;;;;96.95;14.63;;;1.50;99.90;;;;;;10333041;28;20488;-60
2022/01/13 23:30:29;;;;;;;49.58;12.70;;;1.60;99.90;;;;;;10342918;28;20045;-61
2022/01/13 23:35:31;;;;;;;49.58;12.75;;;1.60;99.90;;;;;;10345927;28;20045;-61
2022/01/13 23:40:33;;;;;;;44.47;12.63;;;1.70;99.90;;;;;;10339479;28;20054;-61
2022/01/13 23:47:01;;;;;;;42.75;13.82;;;1.70;99.90;;;;;;10345730;28;20483;-61
2022/01/13 23:50:56;;;;;;;51.45;13.45;;;1.70;99.90;;;;;;10335666;28;20418;-61
2022/01/13 23:55:58;;;;;;;55.83;12.85;;;1.70;99.90;;;;;;10338789;28;20045;-61
